createdAt,value
2018-07-26T00:02:03.067Z,5.37
2018-07-26T00:04:06.265Z,5.80
2018-07-26T00:06:09.854Z,6.07
2018-07-26T00:08:13.374Z,5.80
2018-07-26T00:10:16.938Z,5.93
2018-07-26T00:12:20.107Z,6.23
2018-07-26T00:14:23.820Z,6.57
2018-07-26T00:16:27.304Z,6.10
2018-07-26T00:18:30.818Z,5.93
2018-07-26T00:20:34.340Z,6.13
2018-07-26T00:22:37.887Z,6.40
2018-07-26T00:24:41.380Z,6.30
2018-07-26T00:26:44.943Z,5.87
2018-07-26T00:28:48.484Z,5.90
2018-07-26T00:30:52.009Z,6.07
2018-07-26T00:32:55.558Z,6.43
2018-07-26T00:34:59.151Z,5.87
2018-07-26T00:37:02.671Z,5.37
2018-07-26T00:39:09.047Z,6.23
2018-07-26T00:41:12.639Z,6.13
2018-07-26T00:43:16.103Z,6.20
2018-07-26T00:45:19.795Z,6.23
2018-07-26T00:47:23.288Z,5.97
2018-07-26T00:49:26.896Z,5.57
2018-07-26T00:51:30.376Z,5.93
2018-07-26T00:53:33.929Z,5.80
2018-07-26T00:55:37.435Z,6.27
2018-07-26T00:57:41.010Z,6.40
2018-07-26T00:59:44.544Z,5.93
2018-07-26T01:01:47.997Z,6.37
2018-07-26T01:03:51.524Z,6.83
2018-07-26T01:05:55.036Z,6.83
2018-07-26T01:07:58.543Z,6.70
2018-07-26T01:10:02.148Z,6.50
2018-07-26T01:12:06.057Z,6.93
2018-07-26T01:14:09.566Z,7.00
2018-07-26T01:16:13.069Z,7.60
2018-07-26T01:18:16.679Z,7.10
2018-07-26T01:20:20.286Z,6.90
2018-07-26T01:22:23.812Z,6.27
2018-07-26T01:24:27.343Z,6.97
2018-07-26T01:26:30.848Z,6.60
2018-07-26T01:28:34.370Z,6.70
2018-07-26T01:30:37.891Z,7.47
2018-07-26T01:32:41.576Z,6.70
2018-07-26T01:34:45.315Z,7.07
2018-07-26T01:36:48.816Z,6.77
2018-07-26T01:38:52.299Z,7.87
2018-07-26T01:40:55.830Z,7.80
2018-07-26T01:43:11.308Z,7.17
2018-07-26T01:45:14.857Z,7.60
2018-07-26T01:47:18.359Z,7.37
2018-07-26T01:49:22.726Z,8.00
2018-07-26T01:51:26.263Z,7.67
2018-07-26T01:53:29.796Z,7.20
2018-07-26T01:55:33.259Z,7.00
2018-07-26T01:57:36.812Z,7.13
2018-07-26T01:59:40.370Z,7.13
2018-07-26T02:01:43.977Z,7.13
2018-07-26T02:03:47.489Z,6.70
2018-07-26T02:05:50.971Z,7.40
2018-07-26T02:07:54.450Z,7.17
2018-07-26T02:09:57.965Z,7.33
2018-07-26T02:12:01.511Z,6.83
2018-07-26T02:14:05.652Z,6.97
2018-07-26T02:16:09.404Z,6.87
2018-07-26T02:18:12.888Z,7.67
2018-07-26T02:20:16.489Z,7.20
2018-07-26T02:22:19.968Z,7.43
2018-07-26T02:24:23.483Z,7.43
2018-07-26T02:26:27.059Z,7.27
2018-07-26T02:28:30.611Z,7.53
2018-07-26T02:30:34.152Z,7.73
2018-07-26T02:32:37.736Z,7.10
2018-07-26T02:34:41.230Z,7.80
2018-07-26T02:36:44.807Z,7.17
2018-07-26T02:38:48.205Z,7.20
2018-07-26T02:40:51.844Z,8.30
2018-07-26T02:42:55.387Z,7.63
2018-07-26T02:44:58.983Z,7.43
2018-07-26T02:47:02.483Z,6.97
2018-07-26T02:49:05.991Z,7.07
2018-07-26T02:51:09.505Z,7.63
2018-07-26T02:53:13.049Z,6.80
2018-07-26T02:55:16.545Z,7.07
2018-07-26T02:57:20.139Z,7.13
2018-07-26T02:59:23.624Z,8.13
2018-07-26T03:01:27.207Z,7.13
2018-07-26T03:03:30.766Z,7.13
2018-07-26T03:05:34.322Z,7.53
2018-07-26T03:07:37.863Z,7.10
2018-07-26T03:09:41.342Z,7.40
2018-07-26T03:11:44.942Z,7.13
2018-07-26T03:13:48.427Z,7.50
2018-07-26T03:15:51.980Z,7.27
2018-07-26T03:17:55.500Z,7.37
2018-07-26T03:19:58.995Z,6.97
2018-07-26T03:22:02.524Z,6.90
2018-07-26T03:24:06.068Z,7.87
2018-07-26T03:26:09.615Z,6.87
2018-07-26T03:28:13.120Z,7.33
2018-07-26T03:30:16.676Z,7.57
2018-07-26T03:32:20.264Z,7.27
2018-07-26T03:34:23.422Z,7.57
2018-07-26T03:36:27.015Z,7.37
2018-07-26T03:38:30.585Z,7.70
2018-07-26T03:40:34.152Z,7.07
2018-07-26T03:42:37.635Z,7.23
2018-07-26T03:44:41.175Z,7.10
2018-07-26T03:46:44.987Z,7.27
2018-07-26T03:48:48.511Z,7.70
2018-07-26T03:50:52.192Z,6.97
2018-07-26T03:52:55.717Z,7.30
2018-07-26T03:54:59.187Z,7.53
2018-07-26T03:57:02.704Z,7.20
2018-07-26T03:59:06.288Z,7.03
2018-07-26T04:01:09.842Z,7.07
2018-07-26T04:03:13.407Z,7.63
2018-07-26T04:05:16.917Z,7.47
2018-07-26T04:07:20.476Z,7.40
2018-07-26T04:09:23.943Z,8.03
2018-07-26T04:11:27.568Z,7.63
2018-07-26T04:13:31.057Z,7.27
2018-07-26T04:15:34.627Z,7.87
2018-07-26T04:17:38.165Z,7.83
2018-07-26T04:19:41.677Z,7.50
2018-07-26T04:21:45.191Z,7.43
2018-07-26T04:23:48.776Z,7.33
2018-07-26T04:25:52.306Z,6.87
2018-07-26T04:27:55.823Z,8.40
2018-07-26T04:29:59.328Z,7.73
2018-07-26T04:32:02.884Z,7.77
2018-07-26T04:34:06.366Z,7.10
2018-07-26T04:36:09.988Z,7.70
2018-07-26T04:38:13.467Z,7.53
2018-07-26T04:40:16.982Z,7.33
2018-07-26T04:42:20.538Z,7.63
2018-07-26T04:44:24.080Z,7.00
2018-07-26T04:46:27.684Z,7.43
2018-07-26T04:48:31.161Z,7.90
2018-07-26T04:50:34.738Z,6.67
2018-07-26T04:52:38.268Z,7.77
2018-07-26T04:54:42.015Z,7.60
2018-07-26T04:56:45.403Z,7.40
2018-07-26T04:58:48.888Z,7.60
2018-07-26T05:00:52.706Z,7.80
2018-07-26T05:02:56.279Z,7.40
2018-07-26T05:04:59.896Z,7.33
2018-07-26T05:07:03.443Z,8.13
2018-07-26T05:09:09.063Z,8.33
2018-07-26T05:11:12.667Z,7.80
2018-07-26T05:13:16.218Z,8.47
2018-07-26T05:15:19.806Z,7.67
2018-07-26T05:17:23.369Z,9.03
2018-07-26T05:19:26.874Z,8.50
2018-07-26T05:21:30.395Z,9.50
2018-07-26T05:23:33.944Z,9.00
2018-07-26T05:25:37.547Z,9.00
2018-07-26T05:27:41.107Z,8.77
2018-07-26T05:29:44.659Z,10.00
2018-07-26T05:31:48.212Z,8.07
2018-07-26T05:33:51.708Z,7.83
2018-07-26T05:35:55.250Z,8.13
2018-07-26T05:37:58.775Z,8.90
2018-07-26T05:40:02.304Z,8.60
2018-07-26T05:42:05.844Z,9.50
2018-07-26T05:44:09.346Z,7.73
2018-07-26T05:46:12.910Z,8.67
2018-07-26T05:48:16.469Z,8.10
2018-07-26T05:50:19.992Z,8.17
2018-07-26T05:52:23.572Z,7.87
2018-07-26T05:54:27.065Z,7.43
2018-07-26T05:56:30.251Z,8.30
2018-07-26T05:58:33.447Z,7.57
2018-07-26T06:00:37.020Z,7.77
2018-07-26T06:02:40.903Z,7.80
2018-07-26T06:04:44.447Z,7.23
2018-07-26T06:06:47.971Z,7.37
2018-07-26T06:08:51.479Z,7.23
2018-07-26T06:10:55.027Z,7.10
2018-07-26T06:12:58.520Z,7.57
2018-07-26T06:15:02.153Z,7.87
2018-07-26T06:17:05.784Z,7.20
2018-07-26T06:19:09.309Z,6.37
2018-07-26T06:21:12.903Z,7.30
2018-07-26T06:23:16.165Z,5.97
2018-07-26T06:25:19.824Z,5.97
2018-07-26T06:27:23.394Z,6.53
2018-07-26T06:29:26.902Z,6.67
2018-07-26T06:31:30.419Z,6.60
2018-07-26T06:33:33.958Z,5.92
2018-07-26T06:35:37.511Z,6.10
2018-07-26T06:37:41.070Z,5.57
2018-07-26T06:39:44.579Z,5.83
2018-07-26T06:41:48.129Z,5.67
2018-07-26T06:43:51.656Z,5.50
2018-07-26T06:45:55.172Z,4.43
2018-07-26T06:47:58.673Z,4.70
2018-07-26T06:50:02.187Z,5.33
2018-07-26T06:52:05.917Z,5.70
2018-07-26T06:54:09.429Z,4.90
2018-07-26T06:56:12.920Z,4.87
2018-07-26T06:58:16.403Z,4.78
2018-07-26T07:00:19.971Z,5.03
2018-07-26T07:02:23.507Z,4.60
2018-07-26T07:04:27.075Z,5.53
2018-07-26T07:06:33.448Z,4.80
2018-07-26T07:08:36.974Z,4.77
2018-07-26T07:10:40.475Z,4.72
2018-07-26T07:12:44.124Z,5.03
2018-07-26T07:14:47.655Z,4.60
2018-07-26T07:16:51.196Z,4.25
2018-07-26T07:18:54.686Z,4.53
2018-07-26T07:20:58.203Z,4.42
2018-07-26T07:23:01.754Z,4.42
2018-07-26T07:25:05.824Z,4.00
2018-07-26T07:27:09.380Z,4.72
2018-07-26T07:29:12.903Z,3.77
2018-07-26T07:31:16.558Z,4.17
2018-07-26T07:33:20.146Z,4.45
2018-07-26T07:35:23.740Z,4.53
2018-07-26T07:37:27.271Z,4.00
2018-07-26T07:39:30.775Z,4.15
2018-07-26T07:41:34.332Z,4.40
2018-07-26T07:43:37.851Z,3.87
2018-07-26T07:45:41.441Z,3.70
2018-07-26T07:47:45.060Z,3.98
2018-07-26T07:49:48.539Z,4.10
2018-07-26T07:51:52.050Z,3.72
2018-07-26T07:53:55.632Z,3.80
2018-07-26T07:55:58.890Z,3.72
2018-07-26T07:58:02.409Z,3.30
2018-07-26T08:00:07.415Z,3.70
2018-07-26T08:02:10.941Z,3.45
2018-07-26T08:04:14.511Z,3.98
2018-07-26T08:06:18.306Z,3.20
2018-07-26T08:08:21.920Z,3.47
2018-07-26T08:10:25.424Z,3.02
2018-07-26T08:12:29.066Z,2.95
2018-07-26T08:14:32.540Z,3.35
2018-07-26T08:16:36.008Z,3.10
2018-07-26T08:18:39.520Z,3.20
2018-07-26T08:20:43.099Z,2.80
2018-07-26T08:22:46.604Z,3.25
2018-07-26T08:24:50.185Z,3.20
2018-07-26T08:26:53.721Z,2.85
2018-07-26T08:28:57.295Z,2.52
2018-07-26T08:31:00.801Z,2.85
2018-07-26T08:33:04.375Z,3.10
2018-07-26T08:35:07.726Z,2.87
2018-07-26T08:37:11.268Z,2.33
2018-07-26T08:39:14.811Z,2.72
2018-07-26T08:41:18.295Z,2.47
2018-07-26T08:43:21.778Z,2.50
2018-07-26T08:45:25.308Z,3.00
2018-07-26T08:47:28.822Z,2.85
2018-07-26T08:49:32.327Z,2.00
2018-07-26T08:51:35.843Z,2.20
2018-07-26T08:53:39.442Z,2.08
2018-07-26T08:55:42.937Z,2.00
2018-07-26T08:57:46.478Z,2.30
2018-07-26T08:59:50.004Z,2.10
2018-07-26T09:01:53.510Z,1.92
2018-07-26T09:03:57.035Z,1.50
2018-07-26T09:06:00.586Z,1.60
2018-07-26T09:08:04.115Z,1.85
2018-07-26T09:10:07.763Z,1.87
2018-07-26T09:12:11.283Z,2.00
2018-07-26T09:14:14.877Z,1.72
2018-07-26T09:16:18.406Z,1.60
2018-07-26T09:18:21.930Z,1.30
2018-07-26T09:20:25.482Z,1.60
2018-07-26T09:22:28.996Z,1.80
2018-07-26T09:24:32.605Z,1.40
2018-07-26T09:26:36.313Z,1.57
2018-07-26T09:28:39.805Z,1.60
2018-07-26T09:30:43.399Z,1.87
2018-07-26T09:32:46.876Z,1.80
2018-07-26T09:34:50.443Z,1.60
2018-07-26T09:36:54.082Z,1.82
2018-07-26T09:38:57.588Z,1.90
2018-07-26T09:41:01.257Z,1.62
2018-07-26T09:43:04.729Z,1.70
2018-07-26T09:45:08.429Z,1.80
2018-07-26T09:47:11.927Z,2.10
2018-07-26T09:49:15.582Z,1.67
2018-07-26T09:51:19.135Z,1.80
2018-07-26T09:53:22.663Z,1.75
2018-07-26T09:55:26.155Z,1.70
2018-07-26T09:57:29.765Z,1.80
2018-07-26T09:59:33.307Z,2.00
2018-07-26T10:01:38.102Z,1.98
2018-07-26T10:03:41.634Z,2.15
2018-07-26T10:05:45.203Z,1.75
2018-07-26T10:07:48.668Z,2.12
2018-07-26T10:09:52.196Z,1.75
2018-07-26T10:11:55.701Z,2.20
2018-07-26T10:13:59.289Z,2.00
2018-07-26T10:16:02.784Z,1.92
2018-07-26T10:18:06.385Z,2.00
2018-07-26T10:20:10.007Z,1.80
2018-07-26T10:22:13.491Z,2.00
2018-07-26T10:24:17.032Z,1.65
2018-07-26T10:26:20.566Z,2.05
2018-07-26T10:28:24.063Z,1.75
2018-07-26T10:30:27.653Z,1.70
2018-07-26T10:32:31.175Z,2.22
2018-07-26T10:34:34.763Z,2.00
2018-07-26T10:36:38.256Z,1.80
2018-07-26T10:38:41.759Z,2.22
2018-07-26T10:40:45.303Z,2.25
2018-07-26T10:42:48.837Z,1.77
2018-07-26T10:44:52.368Z,2.92
2018-07-26T10:46:55.941Z,2.35
2018-07-26T10:48:59.482Z,1.98
2018-07-26T10:51:02.982Z,2.45
2018-07-26T10:53:06.758Z,2.40
2018-07-26T10:55:10.367Z,2.47
2018-07-26T10:57:13.926Z,2.08
2018-07-26T10:59:17.457Z,2.25
2018-07-26T11:01:21.264Z,2.35
2018-07-26T11:03:24.882Z,1.95
2018-07-26T11:05:28.479Z,2.33
2018-07-26T11:07:31.974Z,2.72
2018-07-26T11:09:35.539Z,2.50
2018-07-26T11:11:39.032Z,2.67
2018-07-26T11:13:42.560Z,2.42
2018-07-26T11:15:46.071Z,2.58
2018-07-26T11:17:49.835Z,2.52
2018-07-26T11:19:53.418Z,2.50
2018-07-26T11:21:57.268Z,2.58
2018-07-26T11:24:00.778Z,2.70
2018-07-26T11:26:04.420Z,2.85
2018-07-26T11:28:08.000Z,2.80
2018-07-26T11:30:11.628Z,2.40
2018-07-26T11:32:15.179Z,2.33
2018-07-26T11:34:18.686Z,2.77
2018-07-26T11:36:22.190Z,2.35
2018-07-26T11:38:25.783Z,2.42
2018-07-26T11:40:29.355Z,2.40
2018-07-26T11:42:33.093Z,2.37
2018-07-26T11:44:36.750Z,2.45
2018-07-26T11:46:40.721Z,2.52
2018-07-26T11:48:44.297Z,2.60
2018-07-26T11:50:47.851Z,2.33
2018-07-26T11:52:51.448Z,2.37
2018-07-26T11:54:54.955Z,2.47
2018-07-26T11:56:58.509Z,2.37
2018-07-26T11:59:02.066Z,2.87
2018-07-26T12:01:05.616Z,2.70
2018-07-26T12:03:09.333Z,2.60
2018-07-26T12:05:12.833Z,2.45
2018-07-26T12:07:16.345Z,2.75
2018-07-26T12:09:19.863Z,2.55
2018-07-26T12:11:23.420Z,2.37
2018-07-26T12:13:26.960Z,2.42
2018-07-26T12:15:30.528Z,2.70
2018-07-26T12:17:34.069Z,2.52
2018-07-26T12:19:38.029Z,2.70
2018-07-26T12:21:41.646Z,2.58
2018-07-26T12:23:45.144Z,2.70
2018-07-26T12:25:48.726Z,2.70
2018-07-26T12:27:52.263Z,2.60
2018-07-26T12:29:55.854Z,2.45
2018-07-26T12:31:59.492Z,2.52
2018-07-26T12:34:02.970Z,2.80
2018-07-26T12:36:06.588Z,2.50
2018-07-26T12:38:10.246Z,2.52
2018-07-26T12:40:13.735Z,2.50
2018-07-26T12:42:17.263Z,2.70
2018-07-26T12:44:20.883Z,2.30
2018-07-26T12:46:24.507Z,2.60
2018-07-26T12:48:27.979Z,2.30
2018-07-26T12:50:31.683Z,2.55
2018-07-26T12:52:35.336Z,2.65
2018-07-26T12:54:38.894Z,2.60
2018-07-26T12:56:42.457Z,2.80
2018-07-26T12:58:45.964Z,2.75
2018-07-26T13:00:49.566Z,2.40
2018-07-26T13:02:53.330Z,2.55
2018-07-26T13:04:56.892Z,2.35
2018-07-26T13:07:00.503Z,2.55
2018-07-26T13:09:05.741Z,2.30
2018-07-26T13:11:09.243Z,2.62
2018-07-26T13:13:12.755Z,2.62
2018-07-26T13:15:16.246Z,2.85
2018-07-26T13:17:19.875Z,2.30
2018-07-26T13:19:23.327Z,2.10
2018-07-26T13:21:26.835Z,2.45
2018-07-26T13:23:30.420Z,2.20
2018-07-26T13:25:33.571Z,2.20
2018-07-26T13:27:37.103Z,2.35
2018-07-26T13:29:40.611Z,2.67
2018-07-26T13:31:44.188Z,2.47
2018-07-26T13:33:47.715Z,2.50
2018-07-26T13:35:51.237Z,2.70
2018-07-26T13:37:54.901Z,2.50
2018-07-26T13:39:58.464Z,2.70
2018-07-26T13:42:02.001Z,2.92
2018-07-26T13:44:05.730Z,3.20
2018-07-26T13:46:09.384Z,2.50
2018-07-26T13:48:12.847Z,3.08
2018-07-26T13:50:16.413Z,2.70
2018-07-26T13:52:20.005Z,2.30
2018-07-26T13:54:23.422Z,2.52
2018-07-26T13:56:26.947Z,2.60
2018-07-26T13:58:30.445Z,2.33
2018-07-26T14:00:34.049Z,2.50
2018-07-26T14:02:37.272Z,2.55
2018-07-26T14:04:40.847Z,2.87
2018-07-26T14:06:44.378Z,2.50
2018-07-26T14:08:47.864Z,2.90
2018-07-26T14:10:51.447Z,2.70
2018-07-26T14:12:54.935Z,3.00
2018-07-26T14:14:58.539Z,2.83
2018-07-26T14:17:02.080Z,2.87
2018-07-26T14:19:06.652Z,3.20
2018-07-26T14:21:10.144Z,3.10
2018-07-26T14:23:18.814Z,2.95
2018-07-26T14:25:22.376Z,2.80
2018-07-26T14:27:25.958Z,2.90
2018-07-26T14:29:29.552Z,2.85
2018-07-26T14:31:33.019Z,2.47
2018-07-26T14:33:36.575Z,2.35
2018-07-26T14:35:40.126Z,2.80
2018-07-26T14:37:43.346Z,2.72
2018-07-26T14:39:46.807Z,2.70
2018-07-26T14:41:50.365Z,2.50
2018-07-26T14:43:53.907Z,2.80
2018-07-26T14:45:57.433Z,2.90
2018-07-26T14:48:00.964Z,2.92
2018-07-26T14:50:04.960Z,2.52
2018-07-26T14:52:08.510Z,3.08
2018-07-26T14:54:12.040Z,2.70
2018-07-26T14:56:15.599Z,2.37
2018-07-26T14:58:19.221Z,2.98
2018-07-26T15:00:22.747Z,3.47
2018-07-26T15:02:26.392Z,3.08
2018-07-26T15:04:29.905Z,2.90
2018-07-26T15:06:33.443Z,2.92
2018-07-26T15:08:37.005Z,3.08
2018-07-26T15:10:40.512Z,2.80
2018-07-26T15:12:44.041Z,2.95
2018-07-26T15:14:47.555Z,2.95
2018-07-26T15:16:51.151Z,3.00
2018-07-26T15:18:54.651Z,2.98
2018-07-26T15:20:58.220Z,3.10
2018-07-26T15:23:01.751Z,2.90
2018-07-26T15:25:05.560Z,3.17
2018-07-26T15:27:09.170Z,2.90
2018-07-26T15:29:12.682Z,3.12
2018-07-26T15:31:16.888Z,3.25
2018-07-26T15:33:19.781Z,2.87
2018-07-26T15:35:23.419Z,2.77
2018-07-26T15:37:26.975Z,3.20
2018-07-26T15:39:30.487Z,2.83
2018-07-26T15:41:33.997Z,3.50
2018-07-26T15:43:37.616Z,3.27
2018-07-26T15:45:41.105Z,2.95
2018-07-26T15:47:44.594Z,2.80
2018-07-26T15:49:48.115Z,3.20
2018-07-26T15:51:51.642Z,3.20
2018-07-26T15:53:55.142Z,3.08
2018-07-26T15:55:58.707Z,3.10
2018-07-26T15:58:02.320Z,3.42
2018-07-26T16:00:08.387Z,3.17
2018-07-26T16:02:12.196Z,3.20
2018-07-26T16:04:15.846Z,3.25
2018-07-26T16:06:19.365Z,3.30
2018-07-26T16:08:22.874Z,3.40
2018-07-26T16:10:26.431Z,3.30
2018-07-26T16:12:29.965Z,3.83
2018-07-26T16:14:33.504Z,3.40
2018-07-26T16:16:36.990Z,3.47
2018-07-26T16:18:40.547Z,3.12
2018-07-26T16:20:44.065Z,3.05
2018-07-26T16:22:47.634Z,3.05
2018-07-26T16:24:51.216Z,3.10
2018-07-26T16:26:54.771Z,3.20
2018-07-26T16:28:58.308Z,3.12
2018-07-26T16:31:01.854Z,3.42
2018-07-26T16:33:05.639Z,3.55
2018-07-26T16:35:09.476Z,3.05
2018-07-26T16:37:12.975Z,2.95
2018-07-26T16:39:16.592Z,2.98
2018-07-26T16:41:20.114Z,2.98
2018-07-26T16:43:23.696Z,3.25
2018-07-26T16:45:27.224Z,2.80
2018-07-26T16:47:30.812Z,2.80
2018-07-26T16:49:34.406Z,2.90
2018-07-26T16:51:38.051Z,3.25
2018-07-26T16:53:41.727Z,3.25
2018-07-26T16:55:45.318Z,2.98
2018-07-26T16:57:48.871Z,3.15
2018-07-26T16:59:52.036Z,2.90
2018-07-26T17:01:55.814Z,3.08
2018-07-26T17:03:59.416Z,3.15
2018-07-26T17:06:02.944Z,2.85
2018-07-26T17:08:06.510Z,3.37
2018-07-26T17:10:10.240Z,2.90
2018-07-26T17:12:13.843Z,3.35
2018-07-26T17:14:17.426Z,3.20
2018-07-26T17:16:20.948Z,3.90
2018-07-26T17:18:24.454Z,3.20
2018-07-26T17:20:28.043Z,3.40
2018-07-26T17:22:31.623Z,3.17
2018-07-26T17:24:35.402Z,3.22
2018-07-26T17:26:38.952Z,3.77
2018-07-26T17:28:42.542Z,3.58
2018-07-26T17:30:46.069Z,3.17
2018-07-26T17:32:49.459Z,3.80
2018-07-26T17:34:53.138Z,3.90
2018-07-26T17:36:56.660Z,4.00
2018-07-26T17:39:00.303Z,3.77
2018-07-26T17:41:03.863Z,3.72
2018-07-26T17:43:07.431Z,3.35
2018-07-26T17:45:11.724Z,3.83
2018-07-26T17:47:15.293Z,3.70
2018-07-26T17:49:19.140Z,4.25
2018-07-26T17:51:22.660Z,3.67
2018-07-26T17:53:26.235Z,3.42
2018-07-26T17:55:29.772Z,3.50
2018-07-26T17:57:33.319Z,3.40
2018-07-26T17:59:36.855Z,3.90
2018-07-26T18:01:40.381Z,3.33
2018-07-26T18:03:43.943Z,3.45
2018-07-26T18:05:47.287Z,3.67
2018-07-26T18:07:50.775Z,3.30
2018-07-26T18:09:54.564Z,3.35
2018-07-26T18:11:58.081Z,3.52
2018-07-26T18:14:01.260Z,3.75
2018-07-26T18:16:04.822Z,3.83
2018-07-26T18:18:08.336Z,4.08
2018-07-26T18:20:11.896Z,3.67
2018-07-26T18:22:15.414Z,3.47
2018-07-26T18:24:19.028Z,4.25
2018-07-26T18:26:22.504Z,3.35
2018-07-26T18:28:26.083Z,3.80
2018-07-26T18:30:29.655Z,3.58
2018-07-26T18:32:33.186Z,3.47
2018-07-26T18:34:36.731Z,3.70
2018-07-26T18:36:40.215Z,3.92
2018-07-26T18:38:43.836Z,4.40
2018-07-26T18:40:47.548Z,3.62
2018-07-26T18:42:51.103Z,3.80
2018-07-26T18:44:54.667Z,3.67
2018-07-26T18:46:58.206Z,3.60
2018-07-26T18:49:01.767Z,3.60
2018-07-26T18:51:05.353Z,3.30
2018-07-26T18:53:08.879Z,3.77
2018-07-26T18:55:12.197Z,3.52
2018-07-26T18:57:15.737Z,4.15
2018-07-26T18:59:19.248Z,4.10
2018-07-26T19:01:22.848Z,3.98
2018-07-26T19:03:26.370Z,4.83
2018-07-26T19:05:29.946Z,4.03
2018-07-26T19:07:33.570Z,3.50
2018-07-26T19:09:37.130Z,3.52
2018-07-26T19:11:41.331Z,4.15
2018-07-26T19:13:44.927Z,3.83
2018-07-26T19:15:48.486Z,3.95
2018-07-26T19:17:52.054Z,3.90
2018-07-26T19:19:55.603Z,4.10
2018-07-26T19:21:59.130Z,4.00
2018-07-26T19:24:02.712Z,3.80
2018-07-26T19:26:06.738Z,4.12
2018-07-26T19:28:10.283Z,4.15
2018-07-26T19:30:14.603Z,4.35
2018-07-26T19:32:18.260Z,3.90
2018-07-26T19:34:22.415Z,4.12
2018-07-26T19:36:26.013Z,4.30
2018-07-26T19:38:29.535Z,4.25
2018-07-26T19:40:33.039Z,4.15
2018-07-26T19:42:36.869Z,4.53
2018-07-26T19:44:40.535Z,4.28
2018-07-26T19:46:44.065Z,4.70
2018-07-26T19:48:47.672Z,4.80
2018-07-26T19:50:51.252Z,5.15
2018-07-26T19:52:54.983Z,4.75
2018-07-26T19:54:58.678Z,4.30
2018-07-26T19:57:02.325Z,4.95
2018-07-26T19:59:05.939Z,4.90
2018-07-26T20:01:09.471Z,4.42
2018-07-26T20:03:12.991Z,4.60
2018-07-26T20:05:16.588Z,4.75
2018-07-26T20:07:20.120Z,4.55
2018-07-26T20:09:23.680Z,4.03
2018-07-26T20:11:27.296Z,4.58
2018-07-26T20:13:30.777Z,4.62
2018-07-26T20:15:34.341Z,4.72
2018-07-26T20:17:37.846Z,4.67
2018-07-26T20:19:41.385Z,4.78
2018-07-26T20:21:44.926Z,4.58
2018-07-26T20:23:48.431Z,4.28
2018-07-26T20:25:51.951Z,4.40
2018-07-26T20:27:55.538Z,4.60
2018-07-26T20:29:59.063Z,4.53
2018-07-26T20:32:02.574Z,4.40
2018-07-26T20:34:06.530Z,4.40
2018-07-26T20:36:10.190Z,4.60
2018-07-26T20:38:13.851Z,4.72
2018-07-26T20:40:17.376Z,5.80
2018-07-26T20:42:20.915Z,5.42
2018-07-26T20:44:24.456Z,4.72
2018-07-26T20:46:28.010Z,4.78
2018-07-26T20:48:31.663Z,4.42
2018-07-26T20:50:35.081Z,4.53
2018-07-26T20:52:39.074Z,4.67
2018-07-26T20:54:42.708Z,5.00
2018-07-26T20:56:46.294Z,4.70
2018-07-26T20:58:50.336Z,4.58
2018-07-26T21:00:53.852Z,4.50
2018-07-26T21:02:57.531Z,4.62
2018-07-26T21:05:01.043Z,4.97
2018-07-26T21:07:04.743Z,4.50
2018-07-26T21:09:11.367Z,4.33
2018-07-26T21:11:14.932Z,4.70
2018-07-26T21:13:18.489Z,5.00
2018-07-26T21:15:22.022Z,4.80
2018-07-26T21:17:25.578Z,5.03
2018-07-26T21:19:29.137Z,5.13
2018-07-26T21:21:32.659Z,5.10
2018-07-26T21:23:36.175Z,4.77
2018-07-26T21:25:39.719Z,4.50
2018-07-26T21:27:43.215Z,4.28
2018-07-26T21:29:46.804Z,4.87
2018-07-26T21:31:50.362Z,5.10
2018-07-26T21:33:53.845Z,5.00
2018-07-26T21:35:57.447Z,4.93
2018-07-26T21:38:00.981Z,5.05
2018-07-26T21:40:05.443Z,4.45
2018-07-26T21:42:09.067Z,4.80
2018-07-26T21:44:12.591Z,4.78
2018-07-26T21:46:16.172Z,5.03
2018-07-26T21:48:19.700Z,5.20
2018-07-26T21:50:23.314Z,4.93
2018-07-26T21:52:26.914Z,4.77
2018-07-26T21:54:30.392Z,5.10
2018-07-26T21:56:33.927Z,5.13
2018-07-26T21:58:37.492Z,5.37
2018-07-26T22:00:46.539Z,4.80
2018-07-26T22:02:50.066Z,5.10
2018-07-26T22:04:53.602Z,4.60
2018-07-26T22:06:57.182Z,5.10
2018-07-26T22:09:00.696Z,5.27
2018-07-26T22:11:04.193Z,5.03
2018-07-26T22:13:07.736Z,5.10
2018-07-26T22:15:11.260Z,5.40
2018-07-26T22:17:14.771Z,5.53
2018-07-26T22:19:18.268Z,5.03
2018-07-26T22:21:21.882Z,5.13
2018-07-26T22:23:25.447Z,5.47
2018-07-26T22:25:28.930Z,4.77
2018-07-26T22:27:32.718Z,5.50
2018-07-26T22:29:36.194Z,5.20
2018-07-26T22:31:39.814Z,5.03
2018-07-26T22:33:43.308Z,5.77
2018-07-26T22:35:46.886Z,4.87
2018-07-26T22:37:50.491Z,5.33
2018-07-26T22:39:54.226Z,5.40
2018-07-26T22:41:57.899Z,5.60
2018-07-26T22:44:01.404Z,5.20
2018-07-26T22:46:04.926Z,5.07
2018-07-26T22:48:08.543Z,5.37
2018-07-26T22:50:12.046Z,5.30
2018-07-26T22:52:15.311Z,5.60
2018-07-26T22:54:18.738Z,5.83
2018-07-26T22:56:22.299Z,5.40
2018-07-26T22:58:25.767Z,5.00
2018-07-26T23:00:29.530Z,5.13
2018-07-26T23:02:33.506Z,5.63
2018-07-26T23:04:37.027Z,5.73
2018-07-26T23:06:40.579Z,4.60
2018-07-26T23:08:44.068Z,5.13
2018-07-26T23:10:47.662Z,4.83
2018-07-26T23:12:51.235Z,5.40
2018-07-26T23:14:54.711Z,5.30
2018-07-26T23:16:58.203Z,5.40
2018-07-26T23:19:01.842Z,5.47
2018-07-26T23:21:05.385Z,5.37
2018-07-26T23:23:08.871Z,5.07
2018-07-26T23:25:12.402Z,5.90
2018-07-26T23:27:15.963Z,5.23
2018-07-26T23:29:19.451Z,5.43
2018-07-26T23:31:23.087Z,5.40
2018-07-26T23:33:26.617Z,5.37
2018-07-26T23:35:30.146Z,4.87
2018-07-26T23:37:33.791Z,5.60
2018-07-26T23:39:37.275Z,5.07
2018-07-26T23:41:40.888Z,5.50
2018-07-26T23:43:44.356Z,5.10
2018-07-26T23:45:47.740Z,5.47
2018-07-26T23:47:51.380Z,4.83
2018-07-26T23:49:54.944Z,5.43
2018-07-26T23:51:58.509Z,5.30
2018-07-26T23:54:01.951Z,4.93
2018-07-26T23:56:05.507Z,5.00
2018-07-26T23:58:09.114Z,5.37
